sensor_id;sensor_type;location;lat;lon;timestamp;P1;durP1;ratioP1;P2;durP2;ratioP2
36593;SDS011;22603;47.900;8.146;2022-10-16T01:12:28;7.20;;;2.40;;
36593;SDS011;22603;47.900;8.146;2022-10-16T01:19:50;6.40;;;2.83;;
36593;SDS011;22603;47.900;8.146;2022-10-16T01:37:07;10.30;;;2.00;;
36593;SDS011;22603;47.900;8.146;2022-10-16T02:06:56;17.27;;;2.40;;
36593;SDS011;22603;47.900;8.146;2022-10-16T02:14:23;28.83;;;3.40;;
36593;SDS011;22603;47.900;8.146;2022-10-16T02:30:32;29.13;;;2.30;;
36593;SDS011;22603;47.900;8.146;2022-10-16T03:11:04;13.30;;;2.80;;
36593;SDS011;22603;47.900;8.146;2022-10-16T03:30:47;22.37;;;2.43;;
36593;SDS011;22603;47.900;8.146;2022-10-16T03:38:14;3.70;;;1.30;;
36593;SDS011;22603;47.900;8.146;2022-10-16T04:15:53;7.10;;;1.97;;
36593;SDS011;22603;47.900;8.146;2022-10-16T04:18:40;9.30;;;1.93;;
36593;SDS011;22603;47.900;8.146;2022-10-16T04:21:27;9.10;;;1.80;;
36593;SDS011;22603;47.900;8.146;2022-10-16T04:24:14;4.60;;;2.00;;
36593;SDS011;22603;47.900;8.146;2022-10-16T04:27:01;9.23;;;1.60;;
36593;SDS011;22603;47.900;8.146;2022-10-16T04:29:48;4.20;;;2.00;;
36593;SDS011;22603;47.900;8.146;2022-10-16T04:32:36;6.57;;;1.57;;
36593;SDS011;22603;47.900;8.146;2022-10-16T04:35:23;6.17;;;1.93;;
36593;SDS011;22603;47.900;8.146;2022-10-16T04:38:10;5.10;;;2.03;;
36593;SDS011;22603;47.900;8.146;2022-10-16T04:40:57;7.30;;;2.70;;
36593;SDS011;22603;47.900;8.146;2022-10-16T04:43:44;8.33;;;2.00;;
36593;SDS011;22603;47.900;8.146;2022-10-16T04:46:31;5.80;;;1.70;;
36593;SDS011;22603;47.900;8.146;2022-10-16T04:49:19;4.80;;;1.40;;
36593;SDS011;22603;47.900;8.146;2022-10-16T04:52:06;6.30;;;1.90;;
36593;SDS011;22603;47.900;8.146;2022-10-16T04:54:54;6.43;;;1.90;;
36593;SDS011;22603;47.900;8.146;2022-10-16T04:57:45;9.87;;;1.87;;
36593;SDS011;22603;47.900;8.146;2022-10-16T05:00:32;4.03;;;1.53;;
36593;SDS011;22603;47.900;8.146;2022-10-16T05:03:19;4.70;;;1.77;;
36593;SDS011;22603;47.900;8.146;2022-10-16T05:06:07;5.97;;;2.00;;
36593;SDS011;22603;47.900;8.146;2022-10-16T05:08:54;8.77;;;2.30;;
36593;SDS011;22603;47.900;8.146;2022-10-16T05:11:40;8.03;;;1.60;;
36593;SDS011;22603;47.900;8.146;2022-10-16T05:14:27;6.43;;;2.00;;
36593;SDS011;22603;47.900;8.146;2022-10-16T05:17:14;3.67;;;1.50;;
36593;SDS011;22603;47.900;8.146;2022-10-16T05:20:01;3.63;;;1.70;;
36593;SDS011;22603;47.900;8.146;2022-10-16T05:22:49;5.07;;;2.03;;
36593;SDS011;22603;47.900;8.146;2022-10-16T05:25:36;3.67;;;1.57;;
36593;SDS011;22603;47.900;8.146;2022-10-16T05:28:23;7.67;;;2.20;;
36593;SDS011;22603;47.900;8.146;2022-10-16T05:31:11;6.67;;;1.77;;
36593;SDS011;22603;47.900;8.146;2022-10-16T05:33:58;5.63;;;1.80;;
36593;SDS011;22603;47.900;8.146;2022-10-16T05:36:59;56.53;;;4.23;;
36593;SDS011;22603;47.900;8.146;2022-10-16T05:39:48;29.27;;;2.40;;
36593;SDS011;22603;47.900;8.146;2022-10-16T05:42:34;11.57;;;1.33;;
36593;SDS011;22603;47.900;8.146;2022-10-16T05:45:22;4.50;;;1.10;;
36593;SDS011;22603;47.900;8.146;2022-10-16T05:48:09;1.40;;;1.00;;
36593;SDS011;22603;47.900;8.146;2022-10-16T05:50:56;3.60;;;1.10;;
36593;SDS011;22603;47.900;8.146;2022-10-16T05:53:44;4.20;;;1.33;;
36593;SDS011;22603;47.900;8.146;2022-10-16T05:56:32;2.20;;;1.10;;
36593;SDS011;22603;47.900;8.146;2022-10-16T05:59:19;1.13;;;0.80;;
36593;SDS011;22603;47.900;8.146;2022-10-16T06:02:07;1.73;;;0.90;;
36593;SDS011;22603;47.900;8.146;2022-10-16T06:04:57;2.40;;;1.07;;
36593;SDS011;22603;47.900;8.146;2022-10-16T06:07:44;3.60;;;1.40;;
36593;SDS011;22603;47.900;8.146;2022-10-16T06:10:31;3.50;;;1.30;;
36593;SDS011;22603;47.900;8.146;2022-10-16T06:13:20;3.67;;;1.43;;
36593;SDS011;22603;47.900;8.146;2022-10-16T06:16:07;3.80;;;1.37;;
36593;SDS011;22603;47.900;8.146;2022-10-16T06:18:55;4.67;;;1.50;;
36593;SDS011;22603;47.900;8.146;2022-10-16T06:21:44;3.20;;;1.33;;
36593;SDS011;22603;47.900;8.146;2022-10-16T06:24:31;3.47;;;1.50;;
36593;SDS011;22603;47.900;8.146;2022-10-16T06:27:18;2.53;;;1.20;;
36593;SDS011;22603;47.900;8.146;2022-10-16T06:30:07;3.17;;;1.47;;
36593;SDS011;22603;47.900;8.146;2022-10-16T06:32:54;2.90;;;1.20;;
36593;SDS011;22603;47.900;8.146;2022-10-16T06:35:41;4.10;;;1.43;;
36593;SDS011;22603;47.900;8.146;2022-10-16T06:38:29;3.67;;;1.60;;
36593;SDS011;22603;47.900;8.146;2022-10-16T06:41:17;4.60;;;2.20;;
36593;SDS011;22603;47.900;8.146;2022-10-16T06:44:05;6.57;;;2.20;;
36593;SDS011;22603;47.900;8.146;2022-10-16T06:46:54;6.37;;;2.50;;
36593;SDS011;22603;47.900;8.146;2022-10-16T06:49:41;4.03;;;1.63;;
36593;SDS011;22603;47.900;8.146;2022-10-16T06:52:28;5.80;;;1.47;;
36593;SDS011;22603;47.900;8.146;2022-10-16T06:55:15;4.10;;;1.80;;
36593;SDS011;22603;47.900;8.146;2022-10-16T06:58:03;10.37;;;5.10;;
36593;SDS011;22603;47.900;8.146;2022-10-16T07:00:54;12.10;;;4.33;;
36593;SDS011;22603;47.900;8.146;2022-10-16T07:03:44;10.10;;;2.50;;
36593;SDS011;22603;47.900;8.146;2022-10-16T07:06:33;16.60;;;4.70;;
36593;SDS011;22603;47.900;8.146;2022-10-16T07:09:21;6.23;;;2.10;;
36593;SDS011;22603;47.900;8.146;2022-10-16T07:12:08;6.03;;;2.43;;
36593;SDS011;22603;47.900;8.146;2022-10-16T07:14:55;6.73;;;2.67;;
36593;SDS011;22603;47.900;8.146;2022-10-16T07:17:42;5.80;;;2.40;;
36593;SDS011;22603;47.900;8.146;2022-10-16T07:20:31;6.23;;;2.27;;
36593;SDS011;22603;47.900;8.146;2022-10-16T07:23:20;9.10;;;2.53;;
36593;SDS011;22603;47.900;8.146;2022-10-16T07:26:07;11.37;;;2.87;;
36593;SDS011;22603;47.900;8.146;2022-10-16T07:28:55;6.93;;;2.70;;
36593;SDS011;22603;47.900;8.146;2022-10-16T07:31:43;4.37;;;2.00;;
36593;SDS011;22603;47.900;8.146;2022-10-16T07:34:30;4.30;;;2.17;;
36593;SDS011;22603;47.900;8.146;2022-10-16T07:37:18;3.80;;;1.97;;
36593;SDS011;22603;47.900;8.146;2022-10-16T07:40:06;4.70;;;1.83;;
36593;SDS011;22603;47.900;8.146;2022-10-16T07:42:53;7.93;;;1.60;;
36593;SDS011;22603;47.900;8.146;2022-10-16T07:45:47;4.67;;;1.70;;
36593;SDS011;22603;47.900;8.146;2022-10-16T07:48:39;8.63;;;2.20;;
36593;SDS011;22603;47.900;8.146;2022-10-16T07:51:30;6.17;;;2.53;;
36593;SDS011;22603;47.900;8.146;2022-10-16T07:54:18;7.77;;;2.53;;
36593;SDS011;22603;47.900;8.146;2022-10-16T07:57:05;7.03;;;2.67;;
36593;SDS011;22603;47.900;8.146;2022-10-16T07:59:52;6.60;;;2.80;;
36593;SDS011;22603;47.900;8.146;2022-10-16T08:02:39;5.40;;;2.10;;
36593;SDS011;22603;47.900;8.146;2022-10-16T08:05:26;9.00;;;2.07;;
36593;SDS011;22603;47.900;8.146;2022-10-16T08:08:13;5.20;;;2.17;;
36593;SDS011;22603;47.900;8.146;2022-10-16T08:11:02;3.13;;;1.70;;
36593;SDS011;22603;47.900;8.146;2022-10-16T08:13:49;3.67;;;1.63;;
36593;SDS011;22603;47.900;8.146;2022-10-16T08:16:37;8.37;;;1.90;;
36593;SDS011;22603;47.900;8.146;2022-10-16T08:19:24;4.13;;;1.80;;
36593;SDS011;22603;47.900;8.146;2022-10-16T08:22:12;4.03;;;2.00;;
36593;SDS011;22603;47.900;8.146;2022-10-16T08:25:05;5.38;;;1.92;;
36593;SDS011;22603;47.900;8.146;2022-10-16T08:27:54;3.30;;;1.43;;
36593;SDS011;22603;47.900;8.146;2022-10-16T08:30:41;4.10;;;1.53;;
36593;SDS011;22603;47.900;8.146;2022-10-16T08:33:28;4.72;;;1.88;;
36593;SDS011;22603;47.900;8.146;2022-10-16T08:36:17;6.10;;;1.90;;
36593;SDS011;22603;47.900;8.146;2022-10-16T08:39:05;5.37;;;2.27;;
36593;SDS011;22603;47.900;8.146;2022-10-16T08:42:07;3.72;;;1.58;;
36593;SDS011;22603;47.900;8.146;2022-10-16T08:45:11;7.00;;;2.08;;
36593;SDS011;22603;47.900;8.146;2022-10-16T08:48:17;2.88;;;1.65;;
36593;SDS011;22603;47.900;8.146;2022-10-16T08:51:08;4.97;;;1.80;;
36593;SDS011;22603;47.900;8.146;2022-10-16T08:53:58;4.07;;;1.60;;
36593;SDS011;22603;47.900;8.146;2022-10-16T08:56:48;4.00;;;1.70;;
36593;SDS011;22603;47.900;8.146;2022-10-16T08:59:36;3.72;;;1.60;;
36593;SDS011;22603;47.900;8.146;2022-10-16T09:02:27;3.92;;;1.50;;
36593;SDS011;22603;47.900;8.146;2022-10-16T09:05:20;4.53;;;1.65;;
36593;SDS011;22603;47.900;8.146;2022-10-16T09:08:34;3.22;;;1.60;;
36593;SDS011;22603;47.900;8.146;2022-10-16T09:11:30;3.00;;;1.42;;
36593;SDS011;22603;47.900;8.146;2022-10-16T09:17:53;2.38;;;1.20;;
36593;SDS011;22603;47.900;8.146;2022-10-16T09:20:48;2.63;;;1.33;;
36593;SDS011;22603;47.900;8.146;2022-10-16T09:23:37;5.38;;;1.63;;
36593;SDS011;22603;47.900;8.146;2022-10-16T09:26:25;6.00;;;1.52;;
36593;SDS011;22603;47.900;8.146;2022-10-16T09:29:12;6.57;;;1.55;;
36593;SDS011;22603;47.900;8.146;2022-10-16T09:32:06;3.45;;;1.42;;
36593;SDS011;22603;47.900;8.146;2022-10-16T09:34:59;2.42;;;1.30;;
36593;SDS011;22603;47.900;8.146;2022-10-16T09:37:46;3.83;;;1.27;;
36593;SDS011;22603;47.900;8.146;2022-10-16T09:40:36;4.03;;;1.27;;
36593;SDS011;22603;47.900;8.146;2022-10-16T09:43:25;5.60;;;1.38;;
36593;SDS011;22603;47.900;8.146;2022-10-16T09:46:22;3.28;;;1.20;;
36593;SDS011;22603;47.900;8.146;2022-10-16T09:49:19;4.75;;;1.40;;
36593;SDS011;22603;47.900;8.146;2022-10-16T09:52:12;2.40;;;1.20;;
36593;SDS011;22603;47.900;8.146;2022-10-16T09:55:02;2.13;;;1.13;;
36593;SDS011;22603;47.900;8.146;2022-10-16T09:58:00;2.97;;;1.20;;
36593;SDS011;22603;47.900;8.146;2022-10-16T10:00:51;3.40;;;1.00;;
36593;SDS011;22603;47.900;8.146;2022-10-16T10:03:40;2.80;;;1.02;;
36593;SDS011;22603;47.900;8.146;2022-10-16T10:06:29;2.80;;;1.25;;
36593;SDS011;22603;47.900;8.146;2022-10-16T10:09:20;4.07;;;1.40;;
36593;SDS011;22603;47.900;8.146;2022-10-16T10:12:16;6.35;;;1.80;;
36593;SDS011;22603;47.900;8.146;2022-10-16T10:15:11;5.38;;;1.60;;
36593;SDS011;22603;47.900;8.146;2022-10-16T10:18:15;4.15;;;1.48;;
36593;SDS011;22603;47.900;8.146;2022-10-16T10:21:04;4.90;;;1.10;;
36593;SDS011;22603;47.900;8.146;2022-10-16T10:23:54;3.67;;;1.25;;
36593;SDS011;22603;47.900;8.146;2022-10-16T10:26:47;2.20;;;1.02;;
36593;SDS011;22603;47.900;8.146;2022-10-16T10:29:43;4.72;;;1.40;;
36593;SDS011;22603;47.900;8.146;2022-10-16T10:32:41;3.63;;;1.00;;
36593;SDS011;22603;47.900;8.146;2022-10-16T10:35:36;2.60;;;1.05;;
36593;SDS011;22603;47.900;8.146;2022-10-16T10:38:31;3.05;;;1.25;;
36593;SDS011;22603;47.900;8.146;2022-10-16T10:41:36;6.70;;;1.40;;
36593;SDS011;22603;47.900;8.146;2022-10-16T10:44:52;5.85;;;1.60;;
36593;SDS011;22603;47.900;8.146;2022-10-16T10:47:55;6.07;;;1.60;;
36593;SDS011;22603;47.900;8.146;2022-10-16T10:50:56;14.30;;;2.03;;
36593;SDS011;22603;47.900;8.146;2022-10-16T10:53:50;5.07;;;1.60;;
36593;SDS011;22603;47.900;8.146;2022-10-16T10:56:44;6.75;;;1.60;;
36593;SDS011;22603;47.900;8.146;2022-10-16T11:02:52;2.50;;;1.10;;
36593;SDS011;22603;47.900;8.146;2022-10-16T11:05:47;2.90;;;1.00;;
36593;SDS011;22603;47.900;8.146;2022-10-16T11:08:39;3.67;;;1.20;;
36593;SDS011;22603;47.900;8.146;2022-10-16T11:11:30;5.78;;;1.50;;
36593;SDS011;22603;47.900;8.146;2022-10-16T11:14:21;4.55;;;1.50;;
36593;SDS011;22603;47.900;8.146;2022-10-16T11:17:15;2.17;;;1.08;;
36593;SDS011;22603;47.900;8.146;2022-10-16T11:20:11;2.67;;;0.80;;
36593;SDS011;22603;47.900;8.146;2022-10-16T11:23:05;2.05;;;1.00;;
36593;SDS011;22603;47.900;8.146;2022-10-16T11:25:59;3.40;;;1.15;;
36593;SDS011;22603;47.900;8.146;2022-10-16T11:28:51;2.05;;;1.00;;
36593;SDS011;22603;47.900;8.146;2022-10-16T11:31:41;2.72;;;1.23;;
36593;SDS011;22603;47.900;8.146;2022-10-16T11:34:34;2.42;;;1.27;;
36593;SDS011;22603;47.900;8.146;2022-10-16T11:37:25;1.67;;;0.93;;
36593;SDS011;22603;47.900;8.146;2022-10-16T11:40:19;2.20;;;1.08;;
36593;SDS011;22603;47.900;8.146;2022-10-16T11:43:13;2.13;;;1.08;;
36593;SDS011;22603;47.900;8.146;2022-10-16T11:46:04;3.85;;;1.10;;
36593;SDS011;22603;47.900;8.146;2022-10-16T11:48:56;3.53;;;1.08;;
36593;SDS011;22603;47.900;8.146;2022-10-16T11:51:51;3.50;;;1.27;;
36593;SDS011;22603;47.900;8.146;2022-10-16T11:54:45;1.85;;;1.30;;
36593;SDS011;22603;47.900;8.146;2022-10-16T11:57:38;3.42;;;1.00;;
36593;SDS011;22603;47.900;8.146;2022-10-16T12:00:28;4.25;;;1.27;;
36593;SDS011;22603;47.900;8.146;2022-10-16T12:03:22;2.17;;;0.90;;
36593;SDS011;22603;47.900;8.146;2022-10-16T12:06:20;2.30;;;0.90;;
36593;SDS011;22603;47.900;8.146;2022-10-16T12:09:27;4.13;;;1.10;;
36593;SDS011;22603;47.900;8.146;2022-10-16T12:12:23;2.95;;;0.90;;
36593;SDS011;22603;47.900;8.146;2022-10-16T12:15:19;1.70;;;0.90;;
36593;SDS011;22603;47.900;8.146;2022-10-16T12:18:29;1.48;;;0.85;;
36593;SDS011;22603;47.900;8.146;2022-10-16T12:21:16;4.72;;;0.93;;
36593;SDS011;22603;47.900;8.146;2022-10-16T12:24:05;2.08;;;1.00;;
36593;SDS011;22603;47.900;8.146;2022-10-16T12:26:53;2.35;;;1.02;;
36593;SDS011;22603;47.900;8.146;2022-10-16T12:29:41;4.38;;;1.20;;
36593;SDS011;22603;47.900;8.146;2022-10-16T12:32:30;4.55;;;1.20;;
36593;SDS011;22603;47.900;8.146;2022-10-16T12:35:31;2.42;;;1.13;;
36593;SDS011;22603;47.900;8.146;2022-10-16T12:38:21;2.08;;;1.13;;
36593;SDS011;22603;47.900;8.146;2022-10-16T12:41:12;2.17;;;1.00;;
36593;SDS011;22603;47.900;8.146;2022-10-16T12:44:21;2.90;;;1.00;;
36593;SDS011;22603;47.900;8.146;2022-10-16T12:47:18;5.22;;;1.30;;
36593;SDS011;22603;47.900;8.146;2022-10-16T12:50:23;2.58;;;1.25;;
36593;SDS011;22603;47.900;8.146;2022-10-16T12:53:19;4.82;;;1.15;;
36593;SDS011;22603;47.900;8.146;2022-10-16T12:56:09;2.65;;;1.20;;
36593;SDS011;22603;47.900;8.146;2022-10-16T12:59:08;4.07;;;1.13;;
36593;SDS011;22603;47.900;8.146;2022-10-16T13:02:08;1.58;;;1.02;;
36593;SDS011;22603;47.900;8.146;2022-10-16T13:05:15;2.80;;;1.15;;
36593;SDS011;22603;47.900;8.146;2022-10-16T13:08:17;5.32;;;1.20;;
36593;SDS011;22603;47.900;8.146;2022-10-16T13:11:17;2.60;;;1.23;;
36593;SDS011;22603;47.900;8.146;2022-10-16T13:14:20;2.45;;;1.20;;
36593;SDS011;22603;47.900;8.146;2022-10-16T13:17:24;3.97;;;1.30;;
36593;SDS011;22603;47.900;8.146;2022-10-16T13:20:18;3.33;;;1.30;;
36593;SDS011;22603;47.900;8.146;2022-10-16T13:23:13;1.75;;;0.80;;
36593;SDS011;22603;47.900;8.146;2022-10-16T13:26:09;1.85;;;1.00;;
36593;SDS011;22603;47.900;8.146;2022-10-16T13:29:03;1.60;;;0.80;;
36593;SDS011;22603;47.900;8.146;2022-10-16T13:31:51;3.38;;;0.95;;
36593;SDS011;22603;47.900;8.146;2022-10-16T13:34:44;2.63;;;1.23;;
36593;SDS011;22603;47.900;8.146;2022-10-16T13:37:33;1.70;;;1.00;;
36593;SDS011;22603;47.900;8.146;2022-10-16T13:40:21;2.50;;;1.13;;
36593;SDS011;22603;47.900;8.146;2022-10-16T13:43:09;2.08;;;0.93;;
36593;SDS011;22603;47.900;8.146;2022-10-16T13:45:56;2.92;;;1.00;;
36593;SDS011;22603;47.900;8.146;2022-10-16T13:48:55;4.47;;;1.20;;
36593;SDS011;22603;47.900;8.146;2022-10-16T13:51:54;2.17;;;1.20;;
36593;SDS011;22603;47.900;8.146;2022-10-16T13:54:42;2.03;;;1.00;;
36593;SDS011;22603;47.900;8.146;2022-10-16T13:57:29;2.20;;;1.15;;
36593;SDS011;22603;47.900;8.146;2022-10-16T14:00:20;1.77;;;0.98;;
36593;SDS011;22603;47.900;8.146;2022-10-16T14:03:15;1.65;;;0.90;;
36593;SDS011;22603;47.900;8.146;2022-10-16T14:06:03;3.25;;;0.70;;
36593;SDS011;22603;47.900;8.146;2022-10-16T14:08:56;1.95;;;0.80;;
36593;SDS011;22603;47.900;8.146;2022-10-16T14:11:48;3.15;;;0.90;;
36593;SDS011;22603;47.900;8.146;2022-10-16T14:14:40;2.50;;;0.85;;
36593;SDS011;22603;47.900;8.146;2022-10-16T14:17:28;1.50;;;0.80;;
36593;SDS011;22603;47.900;8.146;2022-10-16T14:20:18;2.92;;;1.27;;
36593;SDS011;22603;47.900;8.146;2022-10-16T14:23:19;4.90;;;1.00;;
36593;SDS011;22603;47.900;8.146;2022-10-16T14:26:13;1.48;;;0.90;;
36593;SDS011;22603;47.900;8.146;2022-10-16T14:29:08;4.70;;;0.80;;
36593;SDS011;22603;47.900;8.146;2022-10-16T14:31:59;4.82;;;0.90;;
36593;SDS011;22603;47.900;8.146;2022-10-16T14:34:52;2.05;;;0.82;;
36593;SDS011;22603;47.900;8.146;2022-10-16T14:37:40;1.30;;;0.90;;
36593;SDS011;22603;47.900;8.146;2022-10-16T14:40:28;2.35;;;0.70;;
36593;SDS011;22603;47.900;8.146;2022-10-16T14:43:20;0.95;;;0.70;;
36593;SDS011;22603;47.900;8.146;2022-10-16T14:46:11;1.88;;;0.95;;
36593;SDS011;22603;47.900;8.146;2022-10-16T14:49:03;1.42;;;0.80;;
36593;SDS011;22603;47.900;8.146;2022-10-16T14:51:59;3.75;;;1.10;;
36593;SDS011;22603;47.900;8.146;2022-10-16T14:54:48;2.40;;;0.90;;
36593;SDS011;22603;47.900;8.146;2022-10-16T14:57:35;1.27;;;0.80;;
36593;SDS011;22603;47.900;8.146;2022-10-16T15:00:32;1.77;;;1.08;;
36593;SDS011;22603;47.900;8.146;2022-10-16T15:03:23;2.40;;;1.15;;
36593;SDS011;22603;47.900;8.146;2022-10-16T15:06:10;3.95;;;1.15;;
36593;SDS011;22603;47.900;8.146;2022-10-16T15:08:58;1.58;;;1.00;;
36593;SDS011;22603;47.900;8.146;2022-10-16T15:11:45;3.05;;;0.90;;
36593;SDS011;22603;47.900;8.146;2022-10-16T15:14:33;2.42;;;1.10;;
36593;SDS011;22603;47.900;8.146;2022-10-16T15:17:22;2.55;;;1.10;;
36593;SDS011;22603;47.900;8.146;2022-10-16T15:20:09;3.55;;;1.02;;
36593;SDS011;22603;47.900;8.146;2022-10-16T15:22:57;1.58;;;0.98;;
36593;SDS011;22603;47.900;8.146;2022-10-16T15:25:45;7.95;;;0.90;;
36593;SDS011;22603;47.900;8.146;2022-10-16T15:28:33;4.70;;;1.05;;
36593;SDS011;22603;47.900;8.146;2022-10-16T15:31:21;4.55;;;0.95;;
36593;SDS011;22603;47.900;8.146;2022-10-16T15:34:09;3.13;;;1.13;;
36593;SDS011;22603;47.900;8.146;2022-10-16T15:36:58;1.08;;;0.80;;
36593;SDS011;22603;47.900;8.146;2022-10-16T15:39:49;4.22;;;1.00;;
36593;SDS011;22603;47.900;8.146;2022-10-16T15:42:36;3.70;;;1.08;;
36593;SDS011;22603;47.900;8.146;2022-10-16T15:45:24;2.67;;;0.80;;
36593;SDS011;22603;47.900;8.146;2022-10-16T15:48:12;2.60;;;1.10;;
36593;SDS011;22603;47.900;8.146;2022-10-16T15:51:01;1.67;;;1.00;;
36593;SDS011;22603;47.900;8.146;2022-10-16T15:53:52;1.50;;;0.98;;
36593;SDS011;22603;47.900;8.146;2022-10-16T15:56:39;1.48;;;1.00;;
36593;SDS011;22603;47.900;8.146;2022-10-16T15:59:26;2.92;;;0.90;;
36593;SDS011;22603;47.900;8.146;2022-10-16T16:02:13;4.80;;;1.05;;
36593;SDS011;22603;47.900;8.146;2022-10-16T16:05:00;2.30;;;1.10;;
36593;SDS011;22603;47.900;8.146;2022-10-16T16:07:49;1.30;;;0.82;;
36593;SDS011;22603;47.900;8.146;2022-10-16T16:10:37;2.00;;;1.02;;
36593;SDS011;22603;47.900;8.146;2022-10-16T16:13:24;1.98;;;1.08;;
36593;SDS011;22603;47.900;8.146;2022-10-16T16:16:11;2.17;;;0.98;;
36593;SDS011;22603;47.900;8.146;2022-10-16T16:19:00;2.78;;;1.20;;
36593;SDS011;22603;47.900;8.146;2022-10-16T16:21:52;2.08;;;1.10;;
36593;SDS011;22603;47.900;8.146;2022-10-16T16:24:40;4.25;;;0.98;;
36593;SDS011;22603;47.900;8.146;2022-10-16T16:27:27;4.90;;;0.95;;
36593;SDS011;22603;47.900;8.146;2022-10-16T16:30:17;3.80;;;0.95;;
36593;SDS011;22603;47.900;8.146;2022-10-16T16:33:11;7.13;;;1.40;;
36593;SDS011;22603;47.900;8.146;2022-10-16T16:35:58;4.93;;;1.58;;
36593;SDS011;22603;47.900;8.146;2022-10-16T16:38:47;2.47;;;1.00;;
36593;SDS011;22603;47.900;8.146;2022-10-16T16:41:35;4.20;;;1.25;;
36593;SDS011;22603;47.900;8.146;2022-10-16T16:44:22;4.22;;;1.45;;
36593;SDS011;22603;47.900;8.146;2022-10-16T16:47:15;6.70;;;1.30;;
36593;SDS011;22603;47.900;8.146;2022-10-16T16:50:34;4.50;;;1.65;;
36593;SDS011;22603;47.900;8.146;2022-10-16T16:53:22;2.08;;;1.20;;
36593;SDS011;22603;47.900;8.146;2022-10-16T16:56:09;2.40;;;1.30;;
36593;SDS011;22603;47.900;8.146;2022-10-16T16:58:57;6.18;;;1.80;;
36593;SDS011;22603;47.900;8.146;2022-10-16T17:01:45;9.95;;;1.65;;
36593;SDS011;22603;47.900;8.146;2022-10-16T17:04:38;2.63;;;1.05;;
36593;SDS011;22603;47.900;8.146;2022-10-16T17:07:25;2.65;;;1.20;;
36593;SDS011;22603;47.900;8.146;2022-10-16T17:10:13;6.18;;;2.33;;
36593;SDS011;22603;47.900;8.146;2022-10-16T17:13:00;6.70;;;2.07;;
36593;SDS011;22603;47.900;8.146;2022-10-16T17:15:49;9.70;;;2.10;;
36593;SDS011;22603;47.900;8.146;2022-10-16T17:18:37;10.80;;;1.90;;
36593;SDS011;22603;47.900;8.146;2022-10-16T17:21:25;4.50;;;1.48;;
36593;SDS011;22603;47.900;8.146;2022-10-16T17:24:14;3.73;;;1.70;;
36593;SDS011;22603;47.900;8.146;2022-10-16T17:27:02;2.30;;;1.20;;
36593;SDS011;22603;47.900;8.146;2022-10-16T17:29:50;4.00;;;1.37;;
36593;SDS011;22603;47.900;8.146;2022-10-16T17:32:41;3.63;;;1.30;;
36593;SDS011;22603;47.900;8.146;2022-10-16T17:35:28;5.70;;;1.47;;
36593;SDS011;22603;47.900;8.146;2022-10-16T17:38:15;3.50;;;1.50;;
36593;SDS011;22603;47.900;8.146;2022-10-16T17:44:07;5.63;;;1.60;;
36593;SDS011;22603;47.900;8.146;2022-10-16T17:46:59;8.30;;;1.60;;
36593;SDS011;22603;47.900;8.146;2022-10-16T17:50:04;4.40;;;1.50;;
36593;SDS011;22603;47.900;8.146;2022-10-16T17:52:58;3.73;;;1.50;;
36593;SDS011;22603;47.900;8.146;2022-10-16T17:55:45;2.57;;;1.10;;
36593;SDS011;22603;47.900;8.146;2022-10-16T17:58:33;2.60;;;1.20;;
36593;SDS011;22603;47.900;8.146;2022-10-16T18:01:21;2.87;;;1.27;;
36593;SDS011;22603;47.900;8.146;2022-10-16T18:04:10;4.00;;;1.40;;
36593;SDS011;22603;47.900;8.146;2022-10-16T18:07:01;6.37;;;1.57;;
36593;SDS011;22603;47.900;8.146;2022-10-16T18:09:49;3.27;;;1.47;;
36593;SDS011;22603;47.900;8.146;2022-10-16T18:12:56;2.33;;;1.20;;
36593;SDS011;22603;47.900;8.146;2022-10-16T18:15:43;4.73;;;1.60;;
36593;SDS011;22603;47.900;8.146;2022-10-16T18:18:30;5.20;;;1.63;;
36593;SDS011;22603;47.900;8.146;2022-10-16T18:21:18;4.43;;;1.70;;
36593;SDS011;22603;47.900;8.146;2022-10-16T18:24:09;3.50;;;1.43;;
36593;SDS011;22603;47.900;8.146;2022-10-16T18:26:56;7.13;;;1.90;;
36593;SDS011;22603;47.900;8.146;2022-10-16T18:29:43;6.20;;;1.40;;
36593;SDS011;22603;47.900;8.146;2022-10-16T18:32:31;8.67;;;1.60;;
36593;SDS011;22603;47.900;8.146;2022-10-16T18:35:21;4.87;;;2.03;;
36593;SDS011;22603;47.900;8.146;2022-10-16T18:38:08;5.17;;;1.47;;
36593;SDS011;22603;47.900;8.146;2022-10-16T18:40:57;6.97;;;2.20;;
36593;SDS011;22603;47.900;8.146;2022-10-16T18:43:46;9.63;;;2.47;;
36593;SDS011;22603;47.900;8.146;2022-10-16T18:46:34;8.50;;;1.80;;
36593;SDS011;22603;47.900;8.146;2022-10-16T18:49:22;4.47;;;1.73;;
36593;SDS011;22603;47.900;8.146;2022-10-16T18:52:10;9.00;;;1.87;;
36593;SDS011;22603;47.900;8.146;2022-10-16T18:54:57;5.20;;;1.80;;
36593;SDS011;22603;47.900;8.146;2022-10-16T18:57:45;3.83;;;1.73;;
36593;SDS011;22603;47.900;8.146;2022-10-16T19:00:33;7.40;;;2.07;;
36593;SDS011;22603;47.900;8.146;2022-10-16T19:03:20;6.23;;;2.07;;
36593;SDS011;22603;47.900;8.146;2022-10-16T19:06:08;5.23;;;1.77;;
36593;SDS011;22603;47.900;8.146;2022-10-16T19:08:56;4.40;;;1.50;;
36593;SDS011;22603;47.900;8.146;2022-10-16T19:11:43;4.77;;;1.70;;
36593;SDS011;22603;47.900;8.146;2022-10-16T19:14:32;4.90;;;1.80;;
36593;SDS011;22603;47.900;8.146;2022-10-16T19:17:20;4.43;;;1.67;;
36593;SDS011;22603;47.900;8.146;2022-10-16T19:20:07;5.90;;;2.07;;
36593;SDS011;22603;47.900;8.146;2022-10-16T19:22:55;3.10;;;1.40;;
36593;SDS011;22603;47.900;8.146;2022-10-16T19:25:44;7.93;;;2.43;;
36593;SDS011;22603;47.900;8.146;2022-10-16T19:28:31;5.10;;;1.70;;
36593;SDS011;22603;47.900;8.146;2022-10-16T19:31:21;5.00;;;1.73;;
36593;SDS011;22603;47.900;8.146;2022-10-16T19:34:10;4.07;;;1.47;;
36593;SDS011;22603;47.900;8.146;2022-10-16T19:36:56;4.07;;;1.70;;
36593;SDS011;22603;47.900;8.146;2022-10-16T19:39:43;4.67;;;1.87;;
36593;SDS011;22603;47.900;8.146;2022-10-16T19:42:31;6.90;;;1.80;;
36593;SDS011;22603;47.900;8.146;2022-10-16T19:45:18;7.03;;;1.80;;
36593;SDS011;22603;47.900;8.146;2022-10-16T19:48:06;5.87;;;1.77;;
36593;SDS011;22603;47.900;8.146;2022-10-16T19:50:57;4.67;;;1.80;;
36593;SDS011;22603;47.900;8.146;2022-10-16T19:53:44;4.13;;;1.60;;
36593;SDS011;22603;47.900;8.146;2022-10-16T19:56:32;6.17;;;2.10;;
36593;SDS011;22603;47.900;8.146;2022-10-16T19:59:20;5.83;;;1.47;;
36593;SDS011;22603;47.900;8.146;2022-10-16T20:02:08;3.83;;;1.30;;
36593;SDS011;22603;47.900;8.146;2022-10-16T20:04:57;5.53;;;1.80;;
36593;SDS011;22603;47.900;8.146;2022-10-16T20:07:44;3.90;;;1.73;;
36593;SDS011;22603;47.900;8.146;2022-10-16T20:10:31;4.17;;;1.90;;
36593;SDS011;22603;47.900;8.146;2022-10-16T20:13:18;5.60;;;1.60;;
36593;SDS011;22603;47.900;8.146;2022-10-16T20:16:06;4.43;;;1.70;;
36593;SDS011;22603;47.900;8.146;2022-10-16T20:18:53;5.37;;;1.70;;
36593;SDS011;22603;47.900;8.146;2022-10-16T20:21:42;7.93;;;2.07;;
36593;SDS011;22603;47.900;8.146;2022-10-16T20:24:30;4.00;;;1.60;;
36593;SDS011;22603;47.900;8.146;2022-10-16T20:27:16;7.20;;;1.93;;
36593;SDS011;22603;47.900;8.146;2022-10-16T20:30:04;5.93;;;2.00;;
36593;SDS011;22603;47.900;8.146;2022-10-16T20:32:51;7.40;;;1.80;;
36593;SDS011;22603;47.900;8.146;2022-10-16T20:35:41;7.10;;;2.00;;
36593;SDS011;22603;47.900;8.146;2022-10-16T20:38:30;6.00;;;2.03;;
36593;SDS011;22603;47.900;8.146;2022-10-16T20:41:17;4.60;;;2.00;;
36593;SDS011;22603;47.900;8.146;2022-10-16T20:44:04;12.90;;;1.80;;
36593;SDS011;22603;47.900;8.146;2022-10-16T20:46:53;5.63;;;2.13;;
36593;SDS011;22603;47.900;8.146;2022-10-16T20:49:40;14.70;;;2.03;;
36593;SDS011;22603;47.900;8.146;2022-10-16T20:52:31;7.67;;;1.83;;
36593;SDS011;22603;47.900;8.146;2022-10-16T20:55:19;13.17;;;1.90;;
36593;SDS011;22603;47.900;8.146;2022-10-16T20:58:07;11.03;;;1.70;;
36593;SDS011;22603;47.900;8.146;2022-10-16T21:00:54;4.90;;;1.70;;
36593;SDS011;22603;47.900;8.146;2022-10-16T21:03:41;5.00;;;2.10;;
36593;SDS011;22603;47.900;8.146;2022-10-16T21:06:29;4.67;;;2.00;;